Time;durP1;ratioP1;P1;durP2;ratioP2;P2;SDS_P1;SDS_P2;PMS_P1;PMS_P2;Temp;Humidity;BMP_temperature;BMP_pressure;BME280_temperature;BME280_humidity;BME280_pressure;Samples;Min_cycle;Max_cycle;Signal;HPM_P1;HPM_P2
2022/08/29 00:00:52;;;;;;;;;;;;;;;23.39;65.88;100217.72;5351226;32;34886;-72
2022/08/29 00:03:55;;;;;;;;;;;;;;;23.80;64.55;100220.97;5360413;32;34996;-79
2022/08/29 00:06:57;;;;;;;;;;;;;;;23.06;67.15;100216.41;5366250;32;35056;-79
2022/08/29 00:09:59;;;;;;;;;;;;;;;23.19;66.75;100216.09;5363299;32;34265;-80
2022/08/29 00:13:02;;;;;;;;;;;;;;;24.09;63.33;100220.81;5377575;32;34340;-80
2022/08/29 00:16:04;;;;;;;;;;;;;;;24.19;62.74;100218.06;5350807;32;34290;-72
2022/08/29 00:19:06;;;;;;;;;;;;;;;24.09;62.87;100217.25;5364342;32;35215;-77
2022/08/29 00:22:08;;;;;;;;;;;;;;;23.77;64.03;100224.81;5349352;32;34583;-73
2022/08/29 00:25:10;;;;;;;;;;;;;;;23.53;65.03;100229.81;5377797;32;37973;-73
2022/08/29 00:28:12;;;;;;;;;;;;;;;23.02;67.16;100222.19;5363193;32;35738;-75
2022/08/29 00:31:15;;;;;;;;;;;;;;;23.33;66.61;100228.19;5350889;32;34895;-79
2022/08/29 00:34:17;;;;;;;;;;;;;;;23.20;67.41;100233.87;5363536;32;34968;-79
2022/08/29 00:37:19;;;;;;;;;;;;;;;23.17;68.36;100236.81;5349945;32;34683;-79
2022/08/29 00:40:23;;;;;;;;;;;;;;;23.42;67.01;100233.50;5378065;32;35776;-77
2022/08/29 00:43:27;;;;;;;;;;;;;;;23.56;66.92;100234.03;5362171;32;34764;-80
2022/08/29 00:46:28;;;;;;;;;;;;;;;23.53;66.39;100240.53;5362292;32;35721;-77
2022/08/29 00:49:33;;;;;;;;;;;;;;;23.05;68.49;100238.81;5362901;32;35001;-79
2022/08/29 00:52:38;;;;;;;;;;;;;;;23.24;67.69;100235.25;5360634;32;36589;-73
2022/08/29 00:55:40;;;;;;;;;;;;;;;23.03;68.94;100240.81;5365454;32;37697;-79
2022/08/29 00:58:47;;;;;;;;;;;;;;;22.51;70.87;100237.56;5347376;32;36125;-73
2022/08/29 01:01:49;;;;;;;;;;;;;;;22.34;72.15;100238.22;5319024;32;852551;-72
2022/08/29 01:04:52;;;;;;;;;;;;;;;22.85;69.91;100242.47;5367428;32;34328;-72
2022/08/29 01:07:54;;;;;;;;;;;;;;;23.08;69.72;100241.22;5370839;32;35259;-80
2022/08/29 01:14:17;;;;;;;;;;;;;;;22.64;71.08;100251.50;5360049;32;45169;-79
2022/08/29 01:17:21;;;;;;;;;;;;;;;23.17;69.37;100250.22;5364141;32;34700;-78
2022/08/29 01:20:41;;;;;;;;;;;;;;;23.68;66.93;100251.66;5348171;32;35490;-72
2022/08/29 01:23:49;;;;;;;;;;;;;;;23.68;66.18;100252.50;5367369;32;44676;-79
2022/08/29 01:26:51;;;;;;;;;;;;;;;23.20;67.97;100255.31;5371832;32;34126;-72
2022/08/29 01:29:53;;;;;;;;;;;;;;;23.63;64.72;100246.72;5347386;32;35585;-79
2022/08/29 01:32:56;;;;;;;;;;;;;;;23.71;65.22;100257.59;5378705;32;35543;-72
2022/08/29 01:35:58;;;;;;;;;;;;;;;24.00;63.16;100257.44;5365196;32;35300;-73
2022/08/29 01:39:00;;;;;;;;;;;;;;;24.01;63.38;100258.28;5380313;32;34561;-72
2022/08/29 01:42:08;;;;;;;;;;;;;;;23.61;64.63;100269.31;5349838;32;34757;-78
2022/08/29 01:45:11;;;;;;;;;;;;;;;23.60;64.24;100267.63;5354302;32;45294;-73
2022/08/29 01:48:13;;;;;;;;;;;;;;;22.69;68.51;100256.47;5363773;32;35495;-80
2022/08/29 01:51:15;;;;;;;;;;;;;;;23.24;66.56;100257.53;5360382;32;35476;-79
2022/08/29 01:54:17;;;;;;;;;;;;;;;23.26;66.44;100259.25;5378048;32;35498;-78
2022/08/29 01:57:19;;;;;;;;;;;;;;;23.38;65.19;100258.06;5350161;32;35317;-73
2022/08/29 02:00:21;;;;;;;;;;;;;;;22.57;69.06;100254.91;5373716;32;35364;-79
2022/08/29 02:03:24;;;;;;;;;;;;;;;23.22;66.28;100251.50;5355564;32;35322;-73
2022/08/29 02:06:26;;;;;;;;;;;;;;;22.45;70.56;100254.19;5370479;32;33536;-73
2022/08/29 02:09:28;;;;;;;;;;;;;;;22.75;69.05;100249.69;5378288;32;34658;-72
2022/08/29 02:12:31;;;;;;;;;;;;;;;22.76;68.85;100252.22;5351248;32;34133;-79
2022/08/29 02:15:33;;;;;;;;;;;;;;;22.65;68.99;100250.53;5380721;32;35930;-78
2022/08/29 02:18:35;;;;;;;;;;;;;;;22.49;69.97;100260.97;5349077;32;34226;-78
2022/08/29 02:21:37;;;;;;;;;;;;;;;22.12;71.62;100266.09;5366718;32;34129;-79
2022/08/29 02:24:39;;;;;;;;;;;;;;;22.29;70.94;100254.72;5363543;32;34084;-73
2022/08/29 02:27:42;;;;;;;;;;;;;;;22.31;70.69;100249.22;5351183;32;44667;-79
2022/08/29 02:30:45;;;;;;;;;;;;;;;22.58;69.58;100246.72;5378016;32;34723;-79
2022/08/29 02:33:51;;;;;;;;;;;;;;;22.27;70.51;100239.78;5346817;32;35951;-72
2022/08/29 02:36:53;;;;;;;;;;;;;;;22.97;67.73;100238.69;5366211;32;35058;-78
2022/08/29 02:39:56;;;;;;;;;;;;;;;22.37;69.78;100232.63;5362741;32;34179;-73
2022/08/29 02:42:59;;;;;;;;;;;;;;;22.51;69.12;100237.56;5379141;32;35902;-72
2022/08/29 02:46:01;;;;;;;;;;;;;;;22.15;70.41;100231.00;5351269;32;35760;-78
2022/08/29 02:49:02;;;;;;;;;;;;;;;22.71;68.95;100228.53;5360684;32;34234;-72
2022/08/29 02:52:07;;;;;;;;;;;;;;;22.77;68.20;100224.44;5375203;32;35499;-80
2022/08/29 02:55:11;;;;;;;;;;;;;;;22.79;67.78;100232.31;5362418;32;34076;-79
2022/08/29 02:58:13;;;;;;;;;;;;;;;22.52;68.79;100239.25;5381232;32;44792;-73
2022/08/29 03:01:16;;;;;;;;;;;;;;;22.12;70.24;100232.16;5348523;32;34806;-79
2022/08/29 03:04:18;;;;;;;;;;;;;;;22.49;68.73;100234.19;5376940;32;34304;-73
2022/08/29 03:07:20;;;;;;;;;;;;;;;22.34;69.29;100238.22;5359103;32;34321;-80
2022/08/29 03:10:23;;;;;;;;;;;;;;;22.86;67.28;100250.44;5362814;32;34170;-73
2022/08/29 03:13:25;;;;;;;;;;;;;;;22.92;66.33;100247.16;5379256;32;34705;-78
2022/08/29 03:16:26;;;;;;;;;;;;;;;22.38;68.99;100251.22;5349366;32;35861;-79
2022/08/29 03:19:28;;;;;;;;;;;;;;;22.47;68.38;100246.84;5379348;32;34402;-79
2022/08/29 03:22:30;;;;;;;;;;;;;;;22.24;69.53;100259.66;5363756;32;35385;-79
2022/08/29 03:25:32;;;;;;;;;;;;;;;23.38;64.87;100258.06;5360501;32;34276;-78
2022/08/29 03:28:34;;;;;;;;;;;;;;;22.56;68.13;100259.41;5368843;32;34825;-72
2022/08/29 03:31:36;;;;;;;;;;;;;;;22.44;69.02;100265.88;5362130;32;36536;-78
2022/08/29 03:34:38;;;;;;;;;;;;;;;22.67;67.77;100263.81;5378351;32;35395;-78
2022/08/29 03:37:40;;;;;;;;;;;;;;;22.44;68.42;100271.22;5374144;32;43573;-73
2022/08/29 03:40:42;;;;;;;;;;;;;;;22.23;69.86;100284.72;5367711;32;35478;-80
2022/08/29 03:43:44;;;;;;;;;;;;;;;21.99;70.65;100287.72;5361182;32;34259;-72
2022/08/29 03:46:46;;;;;;;;;;;;;;;23.04;66.47;100276.50;5361816;32;34284;-80
2022/08/29 03:49:48;;;;;;;;;;;;;;;23.12;65.28;100279.28;5363405;32;34236;-72
2022/08/29 03:52:50;;;;;;;;;;;;;;;22.43;68.78;100289.13;5360480;32;34386;-78
2022/08/29 03:55:52;;;;;;;;;;;;;;;23.75;63.00;100276.91;5379556;32;34201;-73
2022/08/29 03:58:54;;;;;;;;;;;;;;;23.16;65.31;100297.63;5348198;32;34155;-80
2022/08/29 04:01:57;;;;;;;;;;;;;;;22.85;66.54;100304.94;5358259;32;36617;-79
2022/08/29 04:05:08;;;;;;;;;;;;;;;22.44;68.35;100304.22;5354867;32;34042;-79
2022/08/29 04:08:10;;;;;;;;;;;;;;;23.04;65.16;100309.50;5367752;32;45082;-72
2022/08/29 04:11:13;;;;;;;;;;;;;;;22.19;68.68;100311.91;5370181;32;36768;-80
2022/08/29 04:14:15;;;;;;;;;;;;;;;22.16;69.34;100313.88;5361321;32;34775;-80
2022/08/29 04:17:17;;;;;;;;;;;;;;;22.64;67.33;100306.91;5380380;32;35996;-80
2022/08/29 04:20:20;;;;;;;;;;;;;;;22.50;67.34;100316.22;5361593;32;35543;-80
2022/08/29 04:23:26;;;;;;;;;;;;;;;23.29;64.72;100312.59;5380642;32;35789;-73
2022/08/29 04:26:28;;;;;;;;;;;;;;;22.62;66.70;100314.25;5362262;32;35545;-79
2022/08/29 04:29:37;;;;;;;;;;;;;;;22.62;66.89;100325.81;5360699;32;33980;-78
2022/08/29 04:32:40;;;;;;;;;;;;;;;22.50;67.63;100321.56;5378562;32;34317;-72
2022/08/29 04:35:42;;;;;;;;;;;;;;;23.18;65.46;100319.78;5347690;32;44492;-72
2022/08/29 04:38:44;;;;;;;;;;;;;;;23.09;65.99;100328.69;5364546;32;34721;-79
2022/08/29 04:41:46;;;;;;;;;;;;;;;24.29;60.74;100324.41;5363015;32;34282;-72
2022/08/29 04:44:48;;;;;;;;;;;;;;;23.35;63.97;100328.94;5350408;32;34244;-78
2022/08/29 04:47:50;;;;;;;;;;;;;;;23.14;65.24;100331.78;5363424;32;34331;-72
2022/08/29 04:50:52;;;;;;;;;;;;;;;22.84;66.24;100330.06;5358854;32;35615;-79
2022/08/29 04:53:55;;;;;;;;;;;;;;;23.57;63.05;100325.09;5376206;32;34393;-73
2022/08/29 04:56:59;;;;;;;;;;;;;;;23.16;64.92;100335.16;5348519;32;35998;-78
2022/08/29 05:00:01;;;;;;;;;;;;;;;23.63;63.26;100342.47;5375547;32;35695;-72
2022/08/29 05:03:03;;;;;;;;;;;;;;;23.19;63.97;100339.41;5332750;32;35565;-73
2022/08/29 05:06:09;;;;;;;;;;;;;;;24.17;61.16;100343.56;5368023;32;34522;-78
2022/08/29 05:09:11;;;;;;;;;;;;;;;24.78;57.78;100333.03;5362427;32;44560;-79
2022/08/29 05:12:12;;;;;;;;;;;;;;;24.85;58.14;100335.94;5365228;32;34382;-73
2022/08/29 05:15:15;;;;;;;;;;;;;;;24.95;57.69;100327.81;5379046;32;36188;-80
2022/08/29 05:18:16;;;;;;;;;;;;;;;24.56;59.22;100341.53;5363833;32;35356;-81
2022/08/29 05:21:30;;;;;;;;;;;;;;;25.28;56.42;100337.06;5367980;32;35691;-72
2022/08/29 05:24:36;;;;;;;;;;;;;;;25.06;57.19;100339.22;5346969;32;34227;-73
2022/08/29 05:27:39;;;;;;;;;;;;;;;26.34;52.34;100335.00;5358896;32;34202;-78
2022/08/29 05:30:41;;;;;;;;;;;;;;;25.68;54.25;100341.87;5376425;32;47412;-73
2022/08/29 05:33:43;;;;;;;;;;;;;;;26.67;51.34;100341.38;5366461;32;35424;-79
2022/08/29 05:36:45;;;;;;;;;;;;;;;26.59;51.47;100346.72;5389078;32;35902;-80
2022/08/29 05:39:47;;;;;;;;;;;;;;;25.58;54.79;100349.22;5369083;32;34425;-75
2022/08/29 05:46:04;;;;;;;;;;;;;;;27.19;49.89;100335.75;5456435;27;20402;-73
2022/08/29 05:49:07;;;;;;;;;;;;;;;28.24;47.15;100344.66;5385991;32;34742;-80
2022/08/29 05:52:09;;;;;;;;;;;;;;;26.33;52.21;100346.78;5397760;32;34913;-71
2022/08/29 05:55:11;;;;;;;;;;;;;;;25.71;54.47;100346.94;5388517;32;34334;-69
2022/08/29 05:58:13;;;;;;;;;;;;;;;25.98;54.27;100350.50;5398910;32;34445;-69
2022/08/29 06:01:41;;;;;;;;;;;;;;;27.79;47.91;100343.44;5377117;32;36808;-68
2022/08/29 06:04:44;;;;;;;;;;;;;;;28.05;47.53;100346.75;5384228;32;34952;-78
2022/08/29 06:07:47;;;;;;;;;;;;;;;27.15;49.79;100346.00;5404111;32;34520;-84
2022/08/29 06:10:49;;;;;;;;;;;;;;;27.45;49.23;100347.19;5381961;32;35733;-78
2022/08/29 06:13:51;;;;;;;;;;;;;;;27.32;49.47;100346.88;5391311;32;34211;-75
2022/08/29 06:16:53;;;;;;;;;;;;;;;29.64;43.80;100344.44;5382265;32;34612;-74
2022/08/29 06:19:55;;;;;;;;;;;;;;;29.80;43.14;100350.69;5388273;32;34951;-74
2022/08/29 06:22:57;;;;;;;;;;;;;;;27.73;47.91;100354.94;5402703;32;35508;-81
2022/08/29 06:25:59;;;;;;;;;;;;;;;28.74;45.92;100356.94;5387580;32;44811;-78
2022/08/29 06:29:05;;;;;;;;;;;;;;;30.25;41.61;100362.41;5402215;32;34611;-72
2022/08/29 06:32:07;;;;;;;;;;;;;;;29.80;42.72;100372.34;5401227;32;36192;-72
2022/08/29 06:35:09;;;;;;;;;;;;;;;30.58;41.04;100366.37;5405799;32;34258;-73
2022/08/29 06:38:11;;;;;;;;;;;;;;;29.54;43.50;100378.19;5405363;32;35660;-73
2022/08/29 06:41:15;;;;;;;;;;;;;;;30.22;41.54;100382.59;5388990;32;34555;-73
2022/08/29 06:44:17;;;;;;;;;;;;;;;29.24;44.26;100379.94;5405175;32;34265;-68
2022/08/29 06:47:19;;;;;;;;;;;;;;;30.02;42.20;100379.59;5391335;32;35035;-73
2022/08/29 06:50:21;;;;;;;;;;;;;;;28.96;44.82;100385.87;5401804;32;36566;-68
2022/08/29 06:53:25;;;;;;;;;;;;;;;30.98;40.03;100380.44;5398412;32;35511;-82
2022/08/29 06:56:33;;;;;;;;;;;;;;;30.72;40.69;100384.53;5414405;32;44728;-73
2022/08/29 06:59:37;;;;;;;;;;;;;;;30.98;40.09;100386.69;5390936;32;34269;-75
2022/08/29 07:02:39;;;;;;;;;;;;;;;31.60;38.76;100393.34;5381805;32;34454;-68
2022/08/29 07:05:41;;;;;;;;;;;;;;;30.20;41.54;100398.19;5400661;32;34508;-69
2022/08/29 07:08:44;;;;;;;;;;;;;;;30.89;40.14;100384.28;5392081;32;33558;-70
2022/08/29 07:11:56;;;;;;;;;;;;;;;30.62;40.04;100400.22;5416398;32;32990;-71
2022/08/29 07:14:58;;;;;;;;;;;;;;;32.04;37.73;100389.50;5389214;32;44450;-85
2022/08/29 07:18:00;;;;;;;;;;;;;;;32.16;37.25;100374.31;5409614;32;34077;-81
2022/08/29 07:21:05;;;;;;;;;;;;;;;33.66;34.67;100390.47;5402282;32;35046;-71
2022/08/29 07:24:07;;;;;;;;;;;;;;;34.53;32.71;100398.53;5388375;32;34630;-71
2022/08/29 07:27:10;;;;;;;;;;;;;;;31.36;38.48;100391.88;5402021;32;35770;-74
2022/08/29 07:30:15;;;;;;;;;;;;;;;32.69;35.70;100392.78;5405523;32;35644;-73
2022/08/29 07:33:17;;;;;;;;;;;;;;;32.82;35.84;100381.94;5418279;32;35453;-74
2022/08/29 07:36:19;;;;;;;;;;;;;;;33.71;34.22;100392.56;5394755;32;34291;-73
2022/08/29 07:39:21;;;;;;;;;;;;;;;31.37;38.22;100396.28;5397677;32;34297;-73
2022/08/29 07:42:23;;;;;;;;;;;;;;;31.61;38.24;100395.00;5414532;32;36065;-73
2022/08/29 07:45:25;;;;;;;;;;;;;;;32.72;36.23;100406.81;5401391;32;34294;-73
2022/08/29 07:48:27;;;;;;;;;;;;;;;32.56;36.21;100401.72;5404112;32;43619;-74
2022/08/29 07:51:29;;;;;;;;;;;;;;;32.00;36.90;100405.34;5391976;32;34310;-75
2022/08/29 07:54:31;;;;;;;;;;;;;;;33.44;34.54;100404.53;5404663;32;34854;-76
2022/08/29 07:57:35;;;;;;;;;;;;;;;32.50;35.12;100405.25;5397273;32;34288;-73
2022/08/29 08:00:40;;;;;;;;;;;;;;;34.61;31.83;100409.19;5389008;32;34335;-76
2022/08/29 08:03:43;;;;;;;;;;;;;;;31.98;36.36;100406.63;5385395;32;35610;-72
2022/08/29 08:06:45;;;;;;;;;;;;;;;33.67;33.25;100396.75;5388558;32;34422;-73
2022/08/29 08:09:52;;;;;;;;;;;;;;;33.42;33.73;100404.72;5415928;32;34461;-73
2022/08/29 08:12:54;;;;;;;;;;;;;;;31.27;37.42;100410.19;5392609;32;34471;-73
2022/08/29 08:15:56;;;;;;;;;;;;;;;31.88;36.63;100412.41;5402809;32;34385;-72
2022/08/29 08:18:58;;;;;;;;;;;;;;;34.79;31.43;100406.56;5389041;32;46026;-70
2022/08/29 08:22:00;;;;;;;;;;;;;;;33.90;32.87;100405.34;5400178;32;34240;-77
2022/08/29 08:25:02;;;;;;;;;;;;;;;33.73;33.03;100411.41;5410905;32;34237;-78
2022/08/29 08:28:05;;;;;;;;;;;;;;;33.63;32.95;100403.69;5402914;32;34348;-75
2022/08/29 08:31:07;;;;;;;;;;;;;;;33.14;32.90;100408.41;5398477;32;33086;-73
2022/08/29 08:34:14;;;;;;;;;;;;;;;32.38;34.92;100404.16;5384686;32;35584;-73
2022/08/29 08:37:16;;;;;;;;;;;;;;;32.87;33.91;100399.34;5411037;32;34183;-77
2022/08/29 08:40:29;;;;;;;;;;;;;;;34.92;30.78;100395.63;5401294;32;44552;-74
2022/08/29 08:43:44;;;;;;;;;;;;;;;33.90;32.56;100405.34;5400024;32;33936;-77
2022/08/29 08:46:48;;;;;;;;;;;;;;;32.76;34.29;100408.06;5404816;32;34335;-76
2022/08/29 08:49:54;;;;;;;;;;;;;;;32.50;35.45;100406.09;5388486;32;34374;-76
2022/08/29 08:52:57;;;;;;;;;;;;;;;32.52;35.30;100403.16;5395224;32;34230;-86
2022/08/29 08:56:00;;;;;;;;;;;;;;;33.40;33.28;100413.09;5402496;32;44742;-86
2022/08/29 08:59:05;;;;;;;;;;;;;;;32.66;35.01;100404.91;5406655;32;34896;-77
2022/08/29 09:02:26;;;;;;;;;;;;;;;31.81;36.50;100408.78;5398897;32;34172;-85
2022/08/29 09:05:45;;;;;;;;;;;;;;;33.70;33.13;100409.13;5393948;32;44576;-73
2022/08/29 09:08:54;;;;;;;;;;;;;;;31.99;35.94;100409.13;5401528;32;35483;-75
2022/08/29 09:12:09;;;;;;;;;;;;;;;32.10;36.38;100409.63;5390460;32;34479;-72
2022/08/29 09:15:13;;;;;;;;;;;;;;;33.87;33.30;100391.28;5385353;32;35397;-74
2022/08/29 09:18:34;;;;;;;;;;;;;;;32.01;36.71;100403.47;5390196;32;35524;-85
2022/08/29 09:21:43;;;;;;;;;;;;;;;32.38;36.09;100399.53;5393392;32;44695;-83
2022/08/29 09:24:49;;;;;;;;;;;;;;;33.87;33.47;100392.09;5409589;32;34602;-73
2022/08/29 09:27:51;;;;;;;;;;;;;;;34.18;33.15;100387.88;5402486;32;34749;-76
2022/08/29 09:31:32;;;;;;;;;;;;;;;33.62;33.47;100397.41;5376381;32;34451;-79
2022/08/29 09:34:38;;;;;;;;;;;;;;;33.86;33.35;100395.06;5359977;32;35672;-77
2022/08/29 09:38:04;;;;;;;;;;;;;;;34.97;31.17;100390.34;5370034;32;45073;-77
2022/08/29 09:41:07;;;;;;;;;;;;;;;34.31;32.65;100393.28;5395329;32;35488;-71
2022/08/29 09:44:13;;;;;;;;;;;;;;;34.76;32.02;100404.25;5393975;32;35418;-70
2022/08/29 09:47:19;;;;;;;;;;;;;;;36.77;28.32;100392.19;5393411;32;34180;-74
2022/08/29 09:50:26;;;;;;;;;;;;;;;34.77;31.81;100403.22;5397658;32;35433;-75
2022/08/29 09:53:28;;;;;;;;;;;;;;;34.64;31.64;100406.00;5385119;32;44529;-71
2022/08/29 09:56:31;;;;;;;;;;;;;;;33.82;32.87;100399.28;5400549;32;34329;-74
2022/08/29 09:59:38;;;;;;;;;;;;;;;33.45;32.78;100401.59;5396928;32;34430;-71
2022/08/29 10:02:44;;;;;;;;;;;;;;;36.22;28.80;100389.50;5368626;32;34576;-73
2022/08/29 10:05:46;;;;;;;;;;;;;;;34.55;30.99;100390.94;5397323;32;34333;-72
2022/08/29 10:08:59;;;;;;;;;;;;;;;32.44;35.01;100403.34;5395711;32;34315;-75
2022/08/29 10:12:11;;;;;;;;;;;;;;;34.87;31.25;100398.12;5411946;32;44519;-82
2022/08/29 10:15:23;;;;;;;;;;;;;;;34.19;31.80;100409.47;5397901;32;34011;-81
2022/08/29 10:18:45;;;;;;;;;;;;;;;35.69;29.49;100398.22;5398769;32;35936;-77
2022/08/29 10:21:59;;;;;;;;;;;;;;;35.72;29.36;100397.75;5406399;32;35392;-70
2022/08/29 10:25:05;;;;;;;;;;;;;;;35.45;29.62;100403.47;5388065;32;43630;-73
2022/08/29 10:28:25;;;;;;;;;;;;;;;32.97;34.11;100407.13;5401376;32;33956;-74
2022/08/29 10:31:33;;;;;;;;;;;;;;;33.64;32.33;100408.09;5387462;32;34234;-76
2022/08/29 10:34:41;;;;;;;;;;;;;;;32.63;33.78;100410.75;5398517;32;44584;-90
2022/08/29 10:37:44;;;;;;;;;;;;;;;32.04;35.17;100413.97;5402909;32;35537;-88
2022/08/29 10:40:47;;;;;;;;;;;;;;;33.75;32.58;100403.88;5387913;32;34317;-73
2022/08/29 10:43:56;;;;;;;;;;;;;;;33.14;32.93;100402.13;5400344;32;35494;-91
2022/08/29 10:47:17;;;;;;;;;;;;;;;31.50;35.90;100395.56;5401150;32;44541;-75
2022/08/29 10:50:26;;;;;;;;;;;;;;;31.53;35.72;100398.72;5399886;32;34779;-72
2022/08/29 10:53:46;;;;;;;;;;;;;;;31.44;36.04;100396.34;5396619;32;34494;-77
2022/08/29 10:56:50;;;;;;;;;;;;;;;31.36;36.73;100385.59;5384080;32;34853;-82
2022/08/29 10:59:56;;;;;;;;;;;;;;;32.64;33.81;100378.94;5410219;32;35546;-71
2022/08/29 11:03:04;;;;;;;;;;;;;;;31.16;36.92;100388.94;5351152;32;44578;-72
2022/08/29 11:06:23;;;;;;;;;;;;;;;31.89;36.47;100383.34;5385488;32;34378;-74
2022/08/29 11:09:28;;;;;;;;;;;;;;;32.21;35.61;100377.28;5410995;32;35824;-76
2022/08/29 11:12:46;;;;;;;;;;;;;;;31.65;36.16;100384.59;5392409;32;44741;-74
2022/08/29 11:16:09;;;;;;;;;;;;;;;31.45;36.83;100379.84;5403180;32;34402;-74
2022/08/29 11:19:31;;;;;;;;;;;;;;;30.86;38.19;100376.53;5386628;32;35988;-77
2022/08/29 11:22:35;;;;;;;;;;;;;;;32.02;36.03;100375.28;5389081;32;43819;-73
2022/08/29 11:25:40;;;;;;;;;;;;;;;32.56;35.17;100369.91;5399617;32;37705;-76
2022/08/29 11:29:09;;;;;;;;;;;;;;;32.21;35.94;100360.97;5388404;32;34389;-76
2022/08/29 11:32:29;;;;;;;;;;;;;;;32.97;35.04;100363.56;5389335;32;35773;-73
2022/08/29 11:35:54;;;;;;;;;;;;;;;32.82;35.27;100361.00;5399758;32;44682;-76
2022/08/29 11:39:08;;;;;;;;;;;;;;;32.60;35.31;100357.59;5385550;32;34212;-76
2022/08/29 11:42:13;;;;;;;;;;;;;;;32.42;35.40;100360.03;5404716;32;35606;-73
2022/08/29 11:45:22;;;;;;;;;;;;;;;33.30;33.25;100347.28;5400727;32;35520;-75
2022/08/29 11:48:36;;;;;;;;;;;;;;;31.87;35.74;100359.06;5386148;32;44601;-69
2022/08/29 11:51:38;;;;;;;;;;;;;;;32.41;35.22;100368.41;5408038;32;34502;-72
2022/08/29 11:54:53;;;;;;;;;;;;;;;31.59;35.82;100359.06;5386567;32;35612;-72
2022/08/29 11:57:57;;;;;;;;;;;;;;;31.99;35.20;100359.34;5393360;32;35086;-71
2022/08/29 12:01:06;;;;;;;;;;;;;;;32.87;33.20;100355.81;5380190;32;44503;-72
2022/08/29 12:04:12;;;;;;;;;;;;;;;34.28;30.37;100361.00;5376912;32;35462;-73
2022/08/29 12:07:14;;;;;;;;;;;;;;;34.81;29.54;100349.84;5406562;32;34897;-72
2022/08/29 12:10:22;;;;;;;;;;;;;;;36.44;27.03;100349.66;5389939;32;34547;-73
2022/08/29 12:13:42;;;;;;;;;;;;;;;36.91;26.45;100333.47;5421118;32;34109;-84
2022/08/29 12:16:52;;;;;;;;;;;;;;;35.56;28.61;100346.41;5388396;32;34530;-90
2022/08/29 12:19:58;;;;;;;;;;;;;;;33.87;30.93;100343.03;5415536;32;35080;-79
2022/08/29 12:23:02;;;;;;;;;;;;;;;36.28;27.19;100339.34;5391899;32;44789;-77
2022/08/29 12:26:04;;;;;;;;;;;;;;;36.97;26.28;100321.59;5398860;32;34266;-83
2022/08/29 12:29:29;;;;;;;;;;;;;;;37.35;25.94;100320.34;5404204;32;34304;-73
2022/08/29 12:32:44;;;;;;;;;;;;;;;35.15;28.64;100324.00;5409278;32;44844;-72
2022/08/29 12:35:56;;;;;;;;;;;;;;;34.91;29.13;100319.34;5406202;32;35759;-76
2022/08/29 12:39:17;;;;;;;;;;;;;;;35.49;28.47;100313.69;5393248;32;44707;-82
2022/08/29 12:42:26;;;;;;;;;;;;;;;36.42;26.45;100310.75;5388075;32;34912;-78
2022/08/29 12:45:30;;;;;;;;;;;;;;;37.45;24.75;100306.06;5400335;32;44474;-79
2022/08/29 12:48:34;;;;;;;;;;;;;;;37.49;24.40;100307.25;5390535;32;35528;-69
2022/08/29 12:51:37;;;;;;;;;;;;;;;39.06;23.14;100298.66;5413103;32;34387;-74
2022/08/29 12:54:40;;;;;;;;;;;;;;;37.61;25.12;100300.69;5392406;32;35525;-67
2022/08/29 12:57:44;;;;;;;;;;;;;;;40.32;21.75;100287.03;5387560;32;34217;-76
2022/08/29 13:00:50;;;;;;;;;;;;;;;39.31;22.77;100281.78;5412294;32;34211;-73
2022/08/29 13:04:00;;;;;;;;;;;;;;;38.70;23.41;100280.69;5371556;32;34802;-76
2022/08/29 13:07:04;;;;;;;;;;;;;;;37.17;25.16;100276.59;5405030;32;44396;-76
2022/08/29 13:10:06;;;;;;;;;;;;;;;33.85;29.45;100293.34;5400920;32;35346;-73
2022/08/29 13:13:13;;;;;;;;;;;;;;;32.56;32.24;100292.91;5396395;32;37048;-74
2022/08/29 13:16:23;;;;;;;;;;;;;;;33.01;31.63;100287.78;5395740;32;35534;-75
2022/08/29 13:19:26;;;;;;;;;;;;;;;33.21;30.90;100293.22;5386651;32;35522;-80
2022/08/29 13:22:28;;;;;;;;;;;;;;;33.15;30.42;100290.28;5401285;32;44615;-76
2022/08/29 13:25:32;;;;;;;;;;;;;;;31.65;33.42;100297.69;5386564;32;35346;-75
2022/08/29 13:28:39;;;;;;;;;;;;;;;32.20;32.65;100285.88;5403485;32;35740;-67
2022/08/29 13:31:43;;;;;;;;;;;;;;;31.60;33.20;100284.69;5406768;32;34108;-74
2022/08/29 13:35:05;;;;;;;;;;;;;;;31.79;32.67;100278.56;5399263;32;35662;-74
2022/08/29 13:38:18;;;;;;;;;;;;;;;32.69;31.27;100268.44;5395914;32;44400;-70
2022/08/29 13:41:26;;;;;;;;;;;;;;;32.01;32.64;100282.03;5392840;32;35132;-71
2022/08/29 13:44:31;;;;;;;;;;;;;;;32.15;32.76;100271.22;5397257;32;44759;-76
2022/08/29 13:48:03;;;;;;;;;;;;;;;32.29;32.32;100272.94;5405686;32;36051;-75
2022/08/29 13:51:06;;;;;;;;;;;;;;;31.31;34.38;100274.87;5385372;32;45068;-75
2022/08/29 13:54:08;;;;;;;;;;;;;;;30.30;36.01;100282.19;5414122;32;35924;-71
2022/08/29 13:57:12;;;;;;;;;;;;;;;31.32;34.47;100276.56;5392706;32;34324;-77
2022/08/29 14:00:14;;;;;;;;;;;;;;;31.17;35.23;100271.22;5400336;32;34363;-70
2022/08/29 14:03:17;;;;;;;;;;;;;;;31.70;33.95;100279.75;5369296;32;35457;-73
2022/08/29 14:06:19;;;;;;;;;;;;;;;30.97;35.22;100276.44;5392574;32;35398;-77
2022/08/29 14:09:24;;;;;;;;;;;;;;;31.30;34.61;100275.94;5401329;32;34698;-70
2022/08/29 14:12:27;;;;;;;;;;;;;;;31.51;34.16;100275.03;5389116;32;35539;-75
2022/08/29 14:15:34;;;;;;;;;;;;;;;31.19;34.60;100276.44;5402815;32;44913;-71
2022/08/29 14:18:37;;;;;;;;;;;;;;;31.32;34.60;100279.28;5386152;32;34364;-69
2022/08/29 14:21:38;;;;;;;;;;;;;;;30.18;37.06;100278.28;5400006;32;34934;-71
2022/08/29 14:24:40;;;;;;;;;;;;;;;29.97;37.54;100280.91;5388497;32;34397;-68
2022/08/29 14:27:43;;;;;;;;;;;;;;;30.07;36.82;100278.75;5383531;32;35210;-73
2022/08/29 14:30:45;;;;;;;;;;;;;;;30.30;36.85;100275.94;5398782;32;34601;-73
2022/08/29 14:33:53;;;;;;;;;;;;;;;31.02;35.27;100279.41;5397982;32;34324;-85
2022/08/29 14:36:55;;;;;;;;;;;;;;;31.10;35.56;100273.00;5396597;32;35214;-74
2022/08/29 14:39:56;;;;;;;;;;;;;;;31.11;35.52;100269.28;5387358;32;34478;-81
2022/08/29 14:42:59;;;;;;;;;;;;;;;30.93;35.32;100263.47;5394730;32;45243;-83
2022/08/29 14:46:04;;;;;;;;;;;;;;;29.68;38.26;100275.31;5365069;32;1001427;-80
2022/08/29 14:49:06;;;;;;;;;;;;;;;30.10;37.29;100264.84;5400264;32;34429;-71
2022/08/29 14:52:10;;;;;;;;;;;;;;;31.21;35.19;100268.91;5398171;32;35928;-73
2022/08/29 14:55:12;;;;;;;;;;;;;;;30.84;35.98;100261.91;5387991;32;35808;-71
2022/08/29 14:58:15;;;;;;;;;;;;;;;31.02;35.45;100265.00;5390137;32;34546;-72
2022/08/29 15:01:17;;;;;;;;;;;;;;;30.68;35.90;100254.91;5377770;32;33176;-72
2022/08/29 15:04:19;;;;;;;;;;;;;;;31.30;35.30;100256.06;5387578;32;34401;-70
2022/08/29 15:07:37;;;;;;;;;;;;;;;31.14;35.33;100252.59;5395561;32;36295;-85
2022/08/29 15:10:39;;;;;;;;;;;;;;;31.32;35.13;100254.84;5383635;32;35313;-70
2022/08/29 15:13:42;;;;;;;;;;;;;;;30.47;36.77;100263.84;5414123;32;35143;-82
2022/08/29 15:16:43;;;;;;;;;;;;;;;31.41;35.10;100258.22;5386086;32;35763;-82
2022/08/29 15:19:45;;;;;;;;;;;;;;;31.76;34.51;100268.06;5396384;32;34438;-67
2022/08/29 15:23:07;;;;;;;;;;;;;;;30.96;35.86;100257.66;5393045;32;34511;-68
2022/08/29 15:26:09;;;;;;;;;;;;;;;31.08;35.71;100261.50;5388167;32;35280;-67
2022/08/29 15:29:11;;;;;;;;;;;;;;;31.47;35.22;100265.59;5402491;32;35701;-69
2022/08/29 15:32:13;;;;;;;;;;;;;;;31.16;35.55;100266.78;5387454;32;34232;-71
2022/08/29 15:35:15;;;;;;;;;;;;;;;30.85;36.19;100269.88;5402447;32;35727;-71
2022/08/29 15:38:18;;;;;;;;;;;;;;;29.34;40.84;100293.91;5399064;32;35525;-73
2022/08/29 15:41:21;;;;;;;;;;;;;;;29.06;42.71;100294.50;5399077;32;34222;-71
2022/08/29 15:44:23;;;;;;;;;;;;;;;27.86;49.98;100319.28;5394546;32;35234;-72
2022/08/29 15:47:26;;;;;;;;;;;;;;;27.04;57.55;100318.47;5388541;32;34684;-83
2022/08/29 15:50:28;;;;;;;;;;;;;;;24.68;69.81;100353.78;5413839;32;43168;-85
2022/08/29 15:53:30;;;;;;;;;;;;;;;24.26;68.79;100356.94;5400588;32;34139;-87
2022/08/29 15:56:34;;;;;;;;;;;;;;;24.29;76.79;100339.69;5416780;32;35045;-86